Portada
METAR-TAF:

METAR-TAF

Aeropuertos :

Aeropuerto de Tetuán-Sania Ramel

Tetuán, Marruecos

latitud: 35-35N, longitud: 005-20W, altitud: 10 m

Observación

El informe se hizo hace 36 minutos, a las 04:00 UTC
Viento 8 kt del oeste, variando entre suroeste y oeste-noroeste
Temperatura 13°C
Humedad 67%
Presión 1027 hPa
Visibilidad 10 km o más

METAR: GMTN 150400Z AUTO 27008KT 230V290 9999NDV /// 13/07 Q1027

Hora: 04:36 (04:36 UTC)


TAF: falta

Observaciones y pronósticos meteorológicos de más de 4000 aeropuertos (mensajes METAR y TAF).

Los puntos amarillos y rojos representan las estaciones disponibles.

Ponga el ratón en el punto deseado para ver el nombre de la estación.

Haga clic para ver las observaciones y los pronósticos meteorológicos.

Para cambiar el mapa : haga clic en los botones verdes con una cruz de color negro para hacer un zoom, en el botón verde con un guión para alejar o en las flechas verdes para mapas adyacentes.


METAR-TAF: